Time;durP1;ratioP1;P1;durP2;ratioP2;P2;SDS_P1;SDS_P2;PMS_P1;PMS_P2;Temp;Humidity;BMP_temperature;BMP_pressure;BME280_temperature;BME280_humidity;BME280_pressure;Samples;Min_cycle;Max_cycle;Signal;HPM_P1;HPM_P2
2024/04/14 00:00:14;;;;;;;6.40;2.20;;;;;;;18.46;nan;100632.59;5505090;26;20345;-74
2024/04/14 00:02:45;;;;;;;5.07;1.90;;;;;;;18.40;nan;100633.88;5500467;26;20081;-71
2024/04/14 00:05:15;;;;;;;4.53;2.28;;;;;;;18.32;nan;100627.41;5494601;26;20008;-72
2024/04/14 00:07:45;;;;;;;6.15;2.08;;;;;;;18.30;nan;100624.84;5494525;26;19993;-72
2024/04/14 00:10:16;;;;;;;6.53;1.92;;;;;;;18.33;nan;100618.50;5500015;26;20001;-71
2024/04/14 00:12:46;;;;;;;6.72;1.95;;;;;;;18.36;nan;100613.00;5495345;26;20017;-72
2024/04/14 00:15:16;;;;;;;4.32;2.22;;;;;;;18.38;nan;100605.81;5509823;26;20011;-71
2024/04/14 00:17:47;;;;;;;3.90;2.17;;;;;;;18.45;nan;100609.72;5498082;26;20001;-71
2024/04/14 00:20:17;;;;;;;4.45;2.30;;;;;;;18.47;nan;100602.53;5496968;26;20005;-72
2024/04/14 00:22:47;;;;;;;5.78;2.25;;;;;;;18.49;nan;100600.66;5493138;26;20359;-72
2024/04/14 00:25:18;;;;;;;6.20;2.38;;;;;;;18.43;nan;100590.47;5503827;26;20001;-72
2024/04/14 00:27:48;;;;;;;7.63;2.72;;;;;;;18.41;nan;100587.06;5492691;26;20002;-72
2024/04/14 00:30:18;;;;;;;5.00;2.33;;;;;;;18.41;nan;100587.06;5502623;26;20009;-72
2024/04/14 00:32:50;;;;;;;4.70;2.35;;;;;;;18.36;nan;100579.44;5500147;26;20000;-72
2024/04/14 00:35:21;;;;;;;5.95;2.47;;;;;;;18.35;nan;100582.22;5499456;26;20007;-72
2024/04/14 00:37:52;;;;;;;7.32;2.50;;;;;;;18.33;nan;100584.94;5502141;26;20071;-71
2024/04/14 00:40:22;;;;;;;4.85;2.70;;;;;;;18.39;nan;100578.41;5502961;26;20008;-69
2024/04/14 00:42:56;;;;;;;5.80;2.55;;;;;;;18.36;nan;100573.31;5498615;26;20005;-73
2024/04/14 00:45:27;;;;;;;5.78;2.50;;;;;;;18.44;nan;100571.84;5500642;26;20009;-72
2024/04/14 00:47:58;;;;;;;6.75;3.13;;;;;;;18.36;nan;100579.44;5494059;26;20028;-71
2024/04/14 00:50:28;;;;;;;6.28;2.80;;;;;;;18.60;nan;100577.78;5504853;26;20094;-72
2024/04/14 00:52:58;;;;;;;8.13;2.92;;;;;;;18.62;nan;100575.88;5496010;26;20016;-72
2024/04/14 00:55:29;;;;;;;6.57;2.80;;;;;;;18.50;nan;100574.06;5499005;26;20376;-71
2024/04/14 00:57:59;;;;;;;6.93;3.30;;;;;;;18.58;nan;100573.53;5498609;26;20336;-72
2024/04/14 01:00:31;;;;;;;8.30;2.80;;;;;;;18.61;nan;100570.69;5495759;26;20057;-73
2024/04/14 01:03:02;;;;;;;5.68;3.13;;;;;;;18.58;nan;100581.50;5502975;26;19997;-71
2024/04/14 01:05:32;;;;;;;8.95;3.10;;;;;;;18.69;nan;100571.03;5487514;26;20391;-69
2024/04/14 01:08:03;;;;;;;9.60;3.20;;;;;;;18.68;nan;100564.03;5496731;26;19997;-72
2024/04/14 01:10:35;;;;;;;9.05;3.55;;;;;;;18.79;nan;100578.22;5499635;26;19997;-69
2024/04/14 01:13:05;;;;;;;8.93;3.70;;;;;;;18.84;nan;100571.66;5496925;26;20187;-71
2024/04/14 01:15:35;;;;;;;6.15;3.17;;;;;;;18.88;nan;100575.78;5495707;26;20469;-71
2024/04/14 01:18:07;;;;;;;7.97;3.72;;;;;;;18.96;nan;100575.25;5503837;26;20152;-71
2024/04/14 01:20:39;;;;;;;9.43;3.92;;;;;;;18.92;nan;100579.06;5504227;26;20000;-71
2024/04/14 01:23:11;;;;;;;8.20;4.10;;;;;;;18.92;nan;100585.22;5495564;26;20352;-71
2024/04/14 01:25:41;;;;;;;9.95;4.00;;;;;;;18.94;nan;100588.59;5492361;26;20004;-72
2024/04/14 01:28:12;;;;;;;9.80;4.03;;;;;;;19.05;nan;100601.09;5496006;26;20401;-71
2024/04/14 01:30:42;;;;;;;10.38;4.13;;;;;;;19.10;nan;100602.47;5496090;26;20532;-70
2024/04/14 01:33:12;;;;;;;8.23;4.35;;;;;;;19.21;nan;100602.59;5493912;26;20001;-71
2024/04/14 01:35:43;;;;;;;6.53;3.72;;;;;;;19.13;nan;100601.41;5492932;26;20045;-69
2024/04/14 01:38:13;;;;;;;8.15;4.20;;;;;;;19.11;nan;100609.47;5496246;26;20084;-72
2024/04/14 01:40:45;;;;;;;9.15;4.20;;;;;;;19.05;nan;100607.25;5493218;26;20385;-70
2024/04/14 01:43:15;;;;;;;8.05;4.03;;;;;;;18.89;nan;100611.03;5503244;26;20336;-72
2024/04/14 01:45:45;;;;;;;9.57;3.92;;;;;;;18.73;nan;100612.22;5498285;26;20013;-72
2024/04/14 01:48:15;;;;;;;8.18;3.78;;;;;;;18.64;nan;100616.34;5492312;26;20010;-74
2024/04/14 01:50:46;;;;;;;8.45;3.70;;;;;;;18.58;nan;100616.78;5497499;26;20005;-73
2024/04/14 01:53:16;;;;;;;7.20;3.30;;;;;;;18.56;nan;100633.69;5490542;26;20001;-73
2024/04/14 01:55:47;;;;;;;7.80;3.22;;;;;;;18.46;nan;100629.94;5499020;26;20015;-74
2024/04/14 01:58:18;;;;;;;8.55;3.17;;;;;;;18.39;nan;100631.31;5500747;26;20016;-74
2024/04/14 02:00:48;;;;;;;7.50;3.30;;;;;;;18.25;nan;100639.28;5499394;26;24134;-71
2024/04/14 02:03:18;;;;;;;7.28;3.10;;;;;;;18.21;nan;100633.34;5499579;26;20421;-73
2024/04/14 02:05:56;;;;;;;8.63;3.20;;;;;;;18.13;nan;100642.72;5499312;26;20651;-72
2024/04/14 02:08:26;;;;;;;7.65;3.10;;;;;;;18.04;nan;100644.19;5495264;26;19998;-74
2024/04/14 02:10:59;;;;;;;8.90;3.20;;;;;;;18.07;nan;100643.13;5502493;26;20372;-74
2024/04/14 02:13:30;;;;;;;7.10;3.10;;;;;;;17.90;nan;100648.66;5503068;26;20499;-74
2024/04/14 02:16:00;;;;;;;8.10;3.08;;;;;;;17.87;nan;100651.53;5504487;26;20025;-74
2024/04/14 02:18:30;;;;;;;9.18;3.35;;;;;;;17.91;nan;100660.94;5502160;26;20567;-73
2024/04/14 02:21:01;;;;;;;5.90;2.72;;;;;;;17.81;nan;100646.63;5504245;26;20395;-73
2024/04/14 02:23:31;;;;;;;8.38;3.28;;;;;;;17.69;nan;100656.16;5502180;26;20385;-72
2024/04/14 02:26:01;;;;;;;8.13;3.17;;;;;;;17.68;nan;100653.63;5505090;26;20001;-72
2024/04/14 02:28:31;;;;;;;6.95;3.17;;;;;;;17.56;nan;100664.97;5500613;26;19997;-72
2024/04/14 02:31:02;;;;;;;8.93;3.35;;;;;;;17.53;nan;100670.47;5497755;26;20086;-74
2024/04/14 02:33:32;;;;;;;8.43;3.63;;;;;;;17.56;nan;100678.19;5501768;26;19997;-72
2024/04/14 02:36:02;;;;;;;5.07;2.53;;;;;;;17.44;nan;100676.31;5501606;26;19996;-74
2024/04/14 02:38:33;;;;;;;7.32;3.20;;;;;;;17.41;nan;100671.22;5498362;26;20004;-71
2024/04/14 02:41:04;;;;;;;7.20;2.75;;;;;;;17.39;nan;100687.19;5502459;26;20365;-73
2024/04/14 02:43:35;;;;;;;7.82;2.58;;;;;;;17.35;nan;100692.75;5504006;26;20001;-71
2024/04/14 02:46:05;;;;;;;7.75;2.72;;;;;;;17.34;nan;100701.63;5496975;26;20011;-71
2024/04/14 02:48:35;;;;;;;6.97;2.22;;;;;;;17.20;nan;100706.84;5500905;26;20341;-71
2024/04/14 02:51:05;;;;;;;5.32;2.15;;;;;;;17.18;nan;100695.53;5509937;26;20004;-75
2024/04/14 02:53:36;;;;;;;7.85;2.38;;;;;;;17.19;nan;100707.78;5498290;26;20573;-72
2024/04/14 02:56:06;;;;;;;5.53;2.28;;;;;;;17.17;nan;100699.09;5493117;26;20001;-74
2024/04/14 02:58:37;;;;;;;5.97;2.17;;;;;;;17.15;nan;100691.25;5501736;26;20367;-73
2024/04/14 03:01:08;;;;;;;5.13;2.10;;;;;;;17.09;nan;100701.34;5496586;26;19998;-74
2024/04/14 03:03:39;;;;;;;7.78;2.30;;;;;;;17.00;nan;100699.28;5503279;26;20005;-74
2024/04/14 03:06:10;;;;;;;6.00;2.00;;;;;;;16.88;nan;100703.50;5486912;26;20025;-73
2024/04/14 03:08:41;;;;;;;5.13;2.00;;;;;;;16.95;nan;100709.28;5494039;26;20399;-73
2024/04/14 03:11:11;;;;;;;4.65;2.08;;;;;;;16.88;nan;100710.56;5509360;26;19997;-74
2024/04/14 03:13:41;;;;;;;6.93;1.85;;;;;;;16.80;nan;100718.09;5498045;26;20008;-74
2024/04/14 03:16:11;;;;;;;7.00;2.30;;;;;;;16.74;nan;100721.06;5493262;26;20014;-74
2024/04/14 03:18:45;;;;;;;7.35;2.10;;;;;;;16.75;nan;100714.84;5498965;26;19993;-74
2024/04/14 03:21:15;;;;;;;6.32;2.00;;;;;;;16.70;nan;100722.19;5502092;26;19997;-73
2024/04/14 03:23:46;;;;;;;7.20;2.15;;;;;;;16.63;nan;100715.59;5499130;26;20008;-74
2024/04/14 03:26:16;;;;;;;6.38;2.00;;;;;;;16.65;nan;100726.91;5509010;26;20016;-74
2024/04/14 03:28:46;;;;;;;4.20;1.83;;;;;;;16.61;nan;100738.56;5500317;26;20067;-73
2024/04/14 03:31:19;;;;;;;6.72;2.10;;;;;;;16.46;nan;100736.81;5493333;26;20571;-73
2024/04/14 03:33:49;;;;;;;5.82;2.00;;;;;;;16.49;nan;100731.34;5496318;26;20012;-75
2024/04/14 03:36:19;;;;;;;6.40;1.90;;;;;;;16.43;nan;100747.53;5500796;26;20078;-74
2024/04/14 03:38:50;;;;;;;6.13;2.05;;;;;;;16.21;nan;100744.34;5497446;26;20097;-73
2024/04/14 03:41:22;;;;;;;8.73;2.00;;;;;;;16.22;nan;100748.69;5495361;26;20009;-74
2024/04/14 03:43:52;;;;;;;5.13;1.98;;;;;;;16.24;nan;100744.19;5502427;26;20012;-72
2024/04/14 03:46:22;;;;;;;7.72;2.22;;;;;;;16.17;nan;100753.38;5501650;26;19998;-74
2024/04/14 03:48:53;;;;;;;6.22;2.10;;;;;;;16.08;nan;100751.22;5504175;26;20082;-74
2024/04/14 03:51:23;;;;;;;8.98;2.22;;;;;;;16.07;nan;100754.81;5504587;26;20538;-73
2024/04/14 03:53:53;;;;;;;7.38;1.88;;;;;;;16.14;nan;100750.91;5502566;26;20008;-74
2024/04/14 03:56:23;;;;;;;4.95;1.95;;;;;;;16.20;nan;100761.13;5494039;26;20389;-74
2024/04/14 03:58:54;;;;;;;6.90;2.20;;;;;;;16.02;nan;100762.13;5496650;26;20015;-74
2024/04/14 04:01:24;;;;;;;6.85;2.17;;;;;;;16.09;nan;100768.78;5494989;26;20496;-73
2024/04/14 04:03:54;;;;;;;4.95;2.22;;;;;;;16.16;nan;100770.16;5501621;26;20001;-73
2024/04/14 04:06:25;;;;;;;6.10;2.17;;;;;;;16.18;nan;100770.06;5498415;26;20070;-73
2024/04/14 04:08:55;;;;;;;8.20;2.20;;;;;;;16.22;nan;100772.44;5499525;26;20000;-73
2024/04/14 04:11:26;;;;;;;5.93;2.25;;;;;;;16.23;nan;100773.28;5491700;26;20120;-74
2024/04/14 04:13:56;;;;;;;6.50;2.40;;;;;;;16.27;nan;100777.47;5492200;26;19997;-73
2024/04/14 04:16:26;;;;;;;5.60;2.13;;;;;;;16.23;nan;100779.41;5492607;26;20012;-72
2024/04/14 04:18:56;;;;;;;7.30;2.17;;;;;;;16.21;nan;100777.81;5487826;26;20000;-74
2024/04/14 04:21:27;;;;;;;7.43;2.30;;;;;;;16.19;nan;100775.25;5497462;26;20341;-74
2024/04/14 04:23:57;;;;;;;6.50;2.05;;;;;;;16.23;nan;100779.41;5495388;26;20005;-73
2024/04/14 04:26:27;;;;;;;9.32;2.50;;;;;;;16.17;nan;100782.38;5498460;26;20001;-72
2024/04/14 04:28:58;;;;;;;6.18;2.20;;;;;;;16.13;nan;100780.00;5496786;26;20008;-74
2024/04/14 04:31:28;;;;;;;4.75;1.95;;;;;;;16.13;nan;100774.72;5503795;26;20001;-74
2024/04/14 04:33:58;;;;;;;7.13;2.20;;;;;;;16.17;nan;100779.75;5499535;26;20414;-74
2024/04/14 04:36:28;;;;;;;8.05;2.47;;;;;;;16.26;nan;100775.75;5501152;26;20568;-73
2024/04/14 04:39:03;;;;;;;7.25;2.63;;;;;;;16.16;nan;100778.06;5495115;26;20005;-73
2024/04/14 04:41:34;;;;;;;6.10;1.87;;;;;;;16.25;nan;100780.16;5499251;26;19998;-73
2024/04/14 04:44:05;;;;;;;8.50;1.98;;;;;;;16.17;nan;100781.53;5494072;26;20021;-75
2024/04/14 04:46:35;;;;;;;7.38;2.20;;;;;;;16.06;nan;100792.66;5498176;26;20008;-72
2024/04/14 04:49:05;;;;;;;6.50;2.10;;;;;;;16.25;nan;100790.72;5501020;26;20441;-74
2024/04/14 04:51:36;;;;;;;8.32;2.30;;;;;;;16.24;nan;100781.09;5495409;26;20005;-72
2024/04/14 04:54:06;;;;;;;9.10;2.00;;;;;;;16.15;nan;100779.00;5503637;26;20024;-74
2024/04/14 04:56:36;;;;;;;7.03;2.10;;;;;;;16.05;nan;100785.69;5501794;26;20020;-73
2024/04/14 04:59:07;;;;;;;6.50;2.10;;;;;;;15.87;nan;100802.50;5492403;26;20468;-74
2024/04/14 05:01:37;;;;;;;7.00;2.20;;;;;;;16.03;nan;100798.09;5500949;26;20005;-73
2024/04/14 05:04:08;;;;;;;7.47;2.33;;;;;;;16.08;nan;100808.41;5494965;26;20092;-74
2024/04/14 05:06:38;;;;;;;6.75;1.88;;;;;;;16.14;nan;100802.78;5495945;26;20020;-74
2024/04/14 05:09:09;;;;;;;8.00;2.58;;;;;;;16.11;nan;100817.03;5497865;26;20005;-74
2024/04/14 05:11:39;;;;;;;9.20;2.42;;;;;;;16.06;nan;100810.28;5494505;26;20000;-74
2024/04/14 05:14:09;;;;;;;7.85;2.13;;;;;;;16.08;nan;100813.69;5495009;26;20378;-72
2024/04/14 05:16:39;;;;;;;6.47;2.22;;;;;;;15.97;nan;100827.44;5496403;26;19998;-74
2024/04/14 05:19:10;;;;;;;10.52;2.78;;;;;;;15.96;nan;100825.75;5497973;26;20042;-73
2024/04/14 05:21:40;;;;;;;7.65;2.40;;;;;;;16.04;nan;100834.09;5499330;26;20002;-73
2024/04/14 05:24:11;;;;;;;6.60;2.13;;;;;;;16.01;nan;100836.06;5587510;21;20063;-73
2024/04/14 05:26:41;;;;;;;10.70;2.72;;;;;;;-138.85;100.00;60025.94;5582403;26;20003;-73
2024/04/14 05:29:12;;;;;;;10.43;2.63;;;;;;;-138.85;100.00;60025.94;5588206;26;20348;-72
2024/04/14 05:31:42;;;;;;;7.60;2.20;;;;;;;-138.85;100.00;60025.94;5588205;26;20077;-71
2024/04/14 05:34:12;;;;;;;6.10;1.58;;;;;;;-138.85;100.00;60025.94;5583125;26;20014;-72
2024/04/14 05:36:46;;;;;;;6.93;1.70;;;;;;;15.63;nan;100869.69;5587976;26;20752;-71
2024/04/14 05:39:16;;;;;;;5.43;1.75;;;;;;;15.35;nan;100874.66;5584032;26;20080;-71
2024/04/14 05:41:46;;;;;;;6.25;1.67;;;;;;;15.38;nan;100877.13;5586361;26;20003;-72
2024/04/14 05:44:17;;;;;;;6.03;1.42;;;;;;;15.36;nan;100868.44;5587406;26;20482;-73
2024/04/14 05:46:47;;;;;;;7.60;1.58;;;;;;;15.35;nan;100874.66;5574232;26;20014;-73
2024/04/14 05:49:20;;;;;;;4.18;1.30;;;;;;;15.23;nan;100869.09;5587756;26;20332;-73
2024/04/14 05:51:50;;;;;;;5.70;1.10;;;;;;;15.29;nan;100874.09;5584084;26;20018;-74
2024/04/14 05:54:21;;;;;;;4.30;1.20;;;;;;;15.40;nan;100883.16;5587057;26;19999;-73
2024/04/14 05:56:51;;;;;;;5.80;1.35;;;;;;;15.44;nan;100886.50;5586324;26;20003;-72
2024/04/14 05:59:21;;;;;;;5.07;1.40;;;;;;;15.49;nan;100893.25;5585388;26;20101;-72
2024/04/14 06:01:52;;;;;;;4.80;1.17;;;;;;;15.62;nan;100889.06;5586707;26;20034;-72
2024/04/14 06:04:22;;;;;;;5.47;1.60;;;;;;;15.79;nan;100893.47;5586813;26;20097;-73
2024/04/14 06:06:52;;;;;;;8.95;1.42;;;;;;;15.66;nan;100890.59;5586069;26;20015;-73
2024/04/14 06:09:23;;;;;;;4.63;1.30;;;;;;;15.79;nan;100898.72;5587938;26;20526;-73
2024/04/14 06:11:53;;;;;;;4.00;1.20;;;;;;;15.83;nan;100903.78;5587553;26;20493;-73
2024/04/14 06:14:24;;;;;;;4.95;1.20;;;;;;;15.94;nan;100919.91;5587797;26;20534;-74
2024/04/14 06:16:54;;;;;;;4.22;1.08;;;;;;;16.15;nan;100916.13;5587299;26;19996;-71
2024/04/14 06:19:24;;;;;;;5.95;1.48;;;;;;;16.01;nan;100912.53;5542405;26;20368;-74
2024/04/14 06:21:54;;;;;;;5.72;1.40;;;;;;;16.13;nan;100915.38;5586956;26;20032;-71
2024/04/14 06:24:25;;;;;;;5.65;1.17;;;;;;;16.34;nan;100919.50;5578390;26;20036;-73
2024/04/14 06:26:55;;;;;;;5.13;1.27;;;;;;;16.16;nan;100927.50;5579141;26;20743;-71
2024/04/14 06:29:25;;;;;;;4.93;1.02;;;;;;;16.28;nan;100925.09;5594717;26;20005;-73
2024/04/14 06:31:55;;;;;;;3.20;1.08;;;;;;;16.05;nan;100924.59;5588304;26;21164;-73
2024/04/14 06:34:26;;;;;;;5.20;1.13;;;;;;;16.15;nan;100925.81;5592671;26;20010;-73
2024/04/14 06:36:56;;;;;;;3.80;0.77;;;;;;;16.42;nan;100925.22;5591571;26;20003;-71
2024/04/14 06:39:26;;;;;;;5.60;0.90;;;;;;;16.54;nan;100935.13;5577476;26;20048;-73
2024/04/14 06:41:57;;;;;;;4.75;1.02;;;;;;;16.41;nan;100941.16;5583826;26;20035;-71
2024/04/14 06:44:27;;;;;;;6.28;0.95;;;;;;;16.27;nan;100936.59;5579263;26;20043;-73
2024/04/14 06:46:57;;;;;;;5.70;0.80;;;;;;;16.48;nan;100935.47;5566835;26;20028;-70
2024/04/14 06:49:28;;;;;;;6.07;1.20;;;;;;;17.34;nan;100942.06;5582681;26;20051;-73
2024/04/14 06:51:58;;;;;;;5.88;1.10;;;;;;;17.21;nan;100956.88;5578932;26;20007;-72
2024/04/14 06:54:29;;;;;;;4.22;0.90;;;;;;;16.73;nan;100950.84;5581792;26;20032;-74
2024/04/14 06:56:59;;;;;;;5.47;0.77;;;;;;;17.32;nan;100957.13;5581452;26;20035;-71
2024/04/14 06:59:29;;;;;;;4.82;0.98;;;;;;;17.04;nan;100947.28;5576301;26;20071;-73
2024/04/14 07:02:00;;;;;;;6.43;0.98;;;;;;;17.19;nan;100966.69;5582707;26;20007;-71
2024/04/14 07:04:30;;;;;;;4.13;0.88;;;;;;;17.34;nan;100958.75;5587144;26;20003;-72
2024/04/14 07:07:00;;;;;;;3.30;0.82;;;;;;;17.95;nan;100958.66;5583193;26;19991;-70
2024/04/14 07:09:31;;;;;;;4.47;0.90;;;;;;;20.61;nan;100942.81;5583244;26;20007;-74
2024/04/14 07:12:02;;;;;;;4.45;0.90;;;;;;;21.58;nan;100949.72;5584429;26;21194;-74
2024/04/14 07:14:34;;;;;;;5.43;1.33;;;;;;;22.73;nan;100943.34;5585427;26;20429;-74
2024/04/14 07:17:04;;;;;;;6.18;1.20;;;;;;;-138.85;100.00;60025.94;5579204;26;20018;-74
2024/04/14 07:19:34;;;;;;;4.50;1.02;;;;;;;-138.85;100.00;60025.94;5588619;26;19998;-74
2024/04/14 07:22:05;;;;;;;5.35;1.10;;;;;;;23.81;nan;100953.00;5596234;26;20001;-75
2024/04/14 07:24:35;;;;;;;6.18;1.27;;;;;;;24.53;nan;100946.75;5601825;26;20631;-74
2024/04/14 07:27:06;;;;;;;3.75;1.00;;;;;;;21.56;nan;100956.13;5597345;26;20026;-74
2024/04/14 07:29:37;;;;;;;5.32;0.90;;;;;;;20.08;nan;100973.09;5605088;26;20071;-74
2024/04/14 07:32:07;;;;;;;3.47;0.97;;;;;;;18.50;nan;100980.91;5594806;26;20050;-73
2024/04/14 07:34:37;;;;;;;3.90;1.00;;;;;;;18.30;nan;100984.75;5598414;26;21251;-72
2024/04/14 07:37:07;;;;;;;4.97;1.23;;;;;;;17.84;nan;100988.41;5596447;26;20006;-74
2024/04/14 07:39:38;;;;;;;3.38;0.90;;;;;;;18.45;nan;100981.19;5601881;26;20355;-71
2024/04/14 07:42:08;;;;;;;4.43;1.10;;;;;;;20.91;nan;100976.06;5594870;26;20016;-73
2024/04/14 07:44:39;;;;;;;5.70;1.10;;;;;;;22.62;nan;100970.97;5593270;26;20103;-72
2024/04/14 07:47:09;;;;;;;3.55;1.02;;;;;;;23.88;nan;100970.22;5588875;26;19999;-74
2024/04/14 07:49:41;;;;;;;4.15;1.02;;;;;;;24.05;nan;100963.47;5589147;26;20830;-74
2024/04/14 07:52:12;;;;;;;6.78;1.30;;;;;;;22.87;nan;100969.72;5590164;26;19999;-74
2024/04/14 07:54:42;;;;;;;6.60;1.27;;;;;;;23.47;nan;100978.16;5578110;26;20410;-72
2024/04/14 07:57:12;;;;;;;4.97;1.20;;;;;;;24.77;nan;100971.38;5599771;26;20341;-73
2024/04/14 07:59:43;;;;;;;6.63;1.20;;;;;;;25.17;nan;100966.84;5570075;26;20011;-72
2024/04/14 08:02:13;;;;;;;4.70;1.30;;;;;;;24.68;nan;100972.16;5601729;26;20331;-75
2024/04/14 08:04:43;;;;;;;4.67;1.33;;;;;;;24.38;nan;100980.13;5595247;26;20804;-74
2024/04/14 08:07:13;;;;;;;5.47;1.10;;;;;;;23.59;nan;100985.16;5590312;26;20225;-74
2024/04/14 08:09:44;;;;;;;4.60;1.00;;;;;;;25.52;nan;100981.44;5582932;26;20226;-74
2024/04/14 08:12:14;;;;;;;4.90;0.90;;;;;;;26.65;nan;100965.44;5587627;26;20275;-75
2024/04/14 08:14:44;;;;;;;3.97;1.00;;;;;;;24.31;nan;100984.31;5582644;26;20233;-74
2024/04/14 08:17:14;;;;;;;4.97;1.25;;;;;;;24.49;nan;100988.09;5586177;26;20758;-72
2024/04/14 08:19:45;;;;;;;2.03;0.73;;;;;;;23.27;nan;100989.59;5587025;26;20063;-73
2024/04/14 08:22:15;;;;;;;5.60;1.33;;;;;;;24.61;nan;100991.53;5574903;26;20775;-73
2024/04/14 08:24:45;;;;;;;5.10;1.00;;;;;;;25.90;nan;100977.97;5591737;26;20010;-75
2024/04/14 08:27:16;;;;;;;3.55;1.00;;;;;;;25.40;nan;100992.41;5589495;26;19992;-74
2024/04/14 08:29:47;;;;;;;5.93;1.00;;;;;;;24.71;nan;100997.81;5573680;26;20000;-74
2024/04/14 08:32:17;;;;;;;5.07;0.90;;;;;;;25.77;nan;100990.75;5582871;26;20476;-75
2024/04/14 08:34:47;;;;;;;5.87;1.20;;;;;;;26.93;nan;100998.31;5578677;26;20268;-73
2024/04/14 08:37:18;;;;;;;4.63;1.07;;;;;;;25.15;nan;101011.63;5582392;26;20225;-75
2024/04/14 08:39:48;;;;;;;4.50;1.10;;;;;;;23.39;nan;101023.28;5585277;26;20330;-72
2024/04/14 08:42:19;;;;;;;5.77;1.00;;;;;;;24.29;nan;101007.66;5576681;26;20630;-73
2024/04/14 08:44:51;;;;;;;3.17;0.90;;;;;;;23.56;nan;101017.41;5586895;26;20318;-74
2024/04/14 08:47:22;;;;;;;5.03;1.33;;;;;;;21.75;nan;101039.00;5573762;26;20015;-72
2024/04/14 08:49:52;;;;;;;3.88;1.00;;;;;;;21.69;nan;101034.09;5578571;26;20003;-75
2024/04/14 08:52:26;;;;;;;5.30;1.02;;;;;;;22.66;nan;101023.06;5583811;26;20011;-73
2024/04/14 08:54:56;;;;;;;4.40;1.27;;;;;;;22.06;nan;101025.91;5567908;26;20000;-73
2024/04/14 08:57:29;;;;;;;4.47;1.10;;;;;;;22.77;nan;101032.75;5582908;26;20050;-74
2024/04/14 09:00:02;;;;;;;5.18;1.20;;;;;;;23.24;nan;101029.88;5585267;26;19996;-74
2024/04/14 09:02:32;;;;;;;6.07;1.02;;;;;;;22.15;nan;101035.88;5583587;26;20000;-74
2024/04/14 09:05:03;;;;;;;4.82;1.30;;;;;;;21.91;nan;101034.22;5588845;26;20019;-74
2024/04/14 09:07:33;;;;;;;5.05;1.25;;;;;;;21.79;nan;101037.78;5588433;26;20642;-73
2024/04/14 09:10:04;;;;;;;4.07;1.23;;;;;;;21.07;nan;101043.13;5588488;26;20072;-71
2024/04/14 09:12:35;;;;;;;5.97;1.30;;;;;;;19.94;nan;101042.13;5593281;26;20049;-72
2024/04/14 09:15:06;;;;;;;5.18;1.30;;;;;;;19.89;nan;101036.28;5585281;26;20016;-72
2024/04/14 09:17:36;;;;;;;5.65;1.13;;;;;;;19.10;nan;101038.88;5581210;26;20565;-74
2024/04/14 09:20:07;;;;;;;5.10;0.98;;;;;;;19.62;nan;101046.03;5579937;26;20041;-74
2024/04/14 09:22:37;;;;;;;4.80;1.10;;;;;;;19.07;nan;101045.19;5585124;26;20038;-74
2024/04/14 09:25:08;;;;;;;5.53;1.30;;;;;;;19.25;nan;101049.38;5583601;26;20014;-74
2024/04/14 09:27:38;;;;;;;2.72;0.90;;;;;;;19.50;nan;101056.59;5568622;26;20007;-73
2024/04/14 09:30:17;;;;;;;5.05;1.17;;;;;;;19.79;nan;101056.41;5563720;26;20012;-73
2024/04/14 09:32:47;;;;;;;8.43;1.35;;;;;;;19.79;nan;101055.56;5575551;26;20465;-73
2024/04/14 09:35:18;;;;;;;4.70;1.10;;;;;;;20.08;nan;101039.44;5582426;26;20003;-73
2024/04/14 09:37:52;;;;;;;4.15;1.00;;;;;;;20.15;nan;101064.59;5583137;26;20685;-72
2024/04/14 09:40:25;;;;;;;4.90;1.27;;;;;;;19.88;nan;101060.25;5568760;26;20248;-74
2024/04/14 09:42:58;;;;;;;4.68;1.23;;;;;;;20.53;nan;101043.44;5582885;26;20006;-73
2024/04/14 09:45:30;;;;;;;4.88;1.00;;;;;;;19.59;nan;101046.25;5582202;26;20007;-74
2024/04/14 09:48:02;;;;;;;3.72;0.80;;;;;;;20.21;nan;101052.72;5583165;26;20004;-73
2024/04/14 09:50:34;;;;;;;5.85;1.10;;;;;;;19.66;nan;101060.84;5584167;26;22039;-74
2024/04/14 09:53:07;;;;;;;6.85;1.10;;;;;;;19.81;nan;101051.84;5584179;26;19995;-74
2024/04/14 09:55:38;;;;;;;5.63;1.17;;;;;;;19.35;nan;101063.75;5581986;26;20342;-74
2024/04/14 09:58:09;;;;;;;4.38;1.30;;;;;;;19.73;nan;101066.56;5582523;26;20011;-73
2024/04/14 10:00:39;;;;;;;4.50;1.10;;;;;;;19.62;nan;101067.25;5579226;26;20368;-71
2024/04/14 10:03:10;;;;;;;5.55;1.40;;;;;;;19.36;nan;101073.41;5581724;26;19999;-72
2024/04/14 10:05:42;;;;;;;4.80;1.27;;;;;;;19.17;nan;101077.31;5577371;26;20004;-72
2024/04/14 10:08:12;;;;;;;5.90;1.20;;;;;;;18.77;nan;101063.00;5581656;26;20497;-73
2024/04/14 10:10:43;;;;;;;5.00;1.00;;;;;;;18.81;nan;101068.97;5569284;26;20011;-71
2024/04/14 10:13:13;;;;;;;5.70;1.05;;;;;;;18.53;nan;101068.91;5584468;26;20007;-73
2024/04/14 10:15:58;;;;;;;5.22;1.15;;;;;;;18.74;nan;101084.38;5587002;26;19996;-73
2024/04/14 10:18:33;;;;;;;5.20;1.30;;;;;;;18.25;nan;101075.91;5583924;26;19999;-73
2024/04/14 10:21:05;;;;;;;6.75;1.30;;;;;;;18.67;nan;101065.47;5587442;26;20010;-73
2024/04/14 10:23:46;;;;;;;6.57;1.38;;;;;;;18.55;nan;101076.78;5587599;26;20019;-72
2024/04/14 10:26:18;;;;;;;5.40;1.02;;;;;;;18.41;nan;101059.09;5586860;26;19995;-72
2024/04/14 10:28:51;;;;;;;9.93;1.45;;;;;;;18.35;nan;101070.03;5588921;26;20001;-73
2024/04/14 10:31:33;;;;;;;7.32;1.60;;;;;;;18.33;nan;101065.78;5583217;26;20076;-73
2024/04/14 10:34:19;;;;;;;4.10;1.13;;;;;;;18.19;nan;101063.91;5576162;26;20373;-74
2024/04/14 10:36:57;;;;;;;10.57;1.65;;;;;;;18.62;nan;101078.09;5583654;26;19996;-74
2024/04/14 10:39:30;;;;;;;6.60;1.05;;;;;;;18.42;nan;101074.03;5585868;26;20541;-74
2024/04/14 10:42:01;;;;;;;7.47;0.90;;;;;;;18.55;nan;101088.22;5582077;26;20022;-73
2024/04/14 10:44:31;;;;;;;4.32;0.80;;;;;;;18.25;nan;101079.44;5584060;26;19995;-73
2024/04/14 10:47:01;;;;;;;5.18;1.13;;;;;;;17.98;nan;101082.84;5583143;26;20003;-73
2024/04/14 10:49:32;;;;;;;5.75;1.02;;;;;;;18.32;nan;101074.66;5582672;26;19996;-73
2024/04/14 10:52:02;;;;;;;4.22;0.90;;;;;;;17.82;nan;101074.09;5581279;26;20010;-74
2024/04/14 10:54:33;;;;;;;6.53;0.80;;;;;;;17.76;nan;101080.56;5582157;26;19991;-72
2024/04/14 10:57:03;;;;;;;4.88;0.80;;;;;;;17.79;nan;101085.69;5583863;26;20003;-73
2024/04/14 10:59:34;;;;;;;3.65;1.25;;;;;;;18.10;nan;101071.53;5584283;26;20345;-71
2024/04/14 11:02:05;;;;;;;3.58;0.95;;;;;;;18.02;nan;101087.00;5576816;26;20454;-73
2024/04/14 11:04:36;;;;;;;4.63;0.88;;;;;;;17.78;nan;101080.47;5592051;26;20059;-73
2024/04/14 11:07:09;;;;;;;2.63;0.82;;;;;;;17.89;nan;101076.28;5588851;26;20374;-72
2024/04/14 11:09:39;;;;;;;4.05;0.90;;;;;;;17.86;nan;101070.31;5579343;26;20002;-73
2024/04/14 11:12:10;;;;;;;6.32;1.02;;;;;;;18.35;nan;101070.03;5584726;26;20007;-71
2024/04/14 11:14:44;;;;;;;6.25;0.93;;;;;;;17.92;nan;101080.53;5585399;26;20016;-70
2024/04/14 11:17:15;;;;;;;3.80;0.98;;;;;;;18.18;nan;101071.94;5597520;26;20012;-73
2024/04/14 11:19:45;;;;;;;7.57;1.00;;;;;;;18.35;nan;101074.47;5592731;26;20370;-73
2024/04/14 11:22:17;;;;;;;5.70;1.27;;;;;;;18.75;nan;101064.88;5592852;26;20394;-73
2024/04/14 11:24:50;;;;;;;4.03;0.77;;;;;;;18.04;nan;101064.78;5616781;21;20342;-74
2024/04/14 11:27:21;;;;;;;4.70;1.10;;;;;;;18.16;nan;101069.38;5602600;26;20010;-75
2024/04/14 11:29:51;;;;;;;3.38;0.70;;;;;;;18.25;nan;101068.84;5613816;26;20010;-74
2024/04/14 11:32:32;;;;;;;3.92;0.82;;;;;;;17.93;nan;101077.81;5608237;26;20157;-74
2024/04/14 11:35:05;;;;;;;5.10;1.10;;;;;;;17.93;nan;101083.09;5604874;26;20005;-75
2024/04/14 11:37:37;;;;;;;3.95;0.90;;;;;;;18.20;nan;101068.25;5606358;26;20074;-75
2024/04/14 11:40:09;;;;;;;6.78;0.90;;;;;;;17.66;nan;101065.31;5628922;26;20563;-75
2024/04/14 11:42:39;;;;;;;5.00;1.10;;;;;;;18.16;nan;101052.66;5613422;26;20435;-74
2024/04/14 11:45:11;;;;;;;7.20;1.27;;;;;;;18.44;nan;101058.03;5611015;26;20475;-73
2024/04/14 11:47:41;;;;;;;4.65;1.05;;;;;;;18.11;nan;101065.28;5610623;26;19999;-72
2024/04/14 11:50:12;;;;;;;5.25;0.90;;;;;;;17.95;nan;101059.19;5610270;26;20425;-72
2024/04/14 11:52:42;;;;;;;4.18;1.00;;;;;;;18.05;nan;101076.25;5575495;26;20006;-72
2024/04/14 11:55:13;;;;;;;3.65;1.10;;;;;;;17.97;nan;101081.13;5610419;26;20004;-76
2024/04/14 11:57:43;;;;;;;5.18;0.65;;;;;;;17.80;nan;101081.25;5619529;26;20494;-72